Time;durP1;ratioP1;P1;durP2;ratioP2;P2;SDS_P1;SDS_P2;PMS_P1;PMS_P2;Temp;Humidity;BMP_temperature;BMP_pressure;BME280_temperature;BME280_humidity;BME280_pressure;Samples;Min_cycle;Max_cycle;Signal;HPM_P1;HPM_P2
2024/04/11 00:02:17;;;;;;;1.30;1.20;;;19.80;61.00;;;;;;5329310;26;20015;-53
2024/04/11 00:04:43;;;;;;;1.58;1.30;;;19.80;61.00;;;;;;5329204;26;20013;-53
2024/04/11 00:07:09;;;;;;;2.78;1.45;;;19.80;60.90;;;;;;5334738;26;20001;-54
2024/04/11 00:09:34;;;;;;;1.83;1.40;;;19.80;60.90;;;;;;5334962;26;20410;-48
2024/04/11 00:12:00;;;;;;;1.60;1.13;;;19.80;61.00;;;;;;5328679;26;20505;-49
2024/04/11 00:14:25;;;;;;;2.63;1.42;;;19.80;60.90;;;;;;5344326;26;20116;-56
2024/04/11 00:16:51;;;;;;;1.75;1.38;;;19.80;60.90;;;;;;5330891;26;20082;-60
2024/04/11 00:19:17;;;;;;;1.75;1.30;;;19.80;60.90;;;;;;5328120;26;20660;-51
2024/04/11 00:21:42;;;;;;;1.63;1.30;;;19.80;60.80;;;;;;5328382;26;20045;-49
2024/04/11 00:24:08;;;;;;;1.70;1.20;;;19.80;61.00;;;;;;5336626;26;20015;-48
2024/04/11 00:26:34;;;;;;;1.45;1.05;;;19.80;60.90;;;;;;5326674;26;20013;-50
2024/04/11 00:29:00;;;;;;;1.27;1.17;;;19.80;61.00;;;;;;5334270;26;20004;-54
2024/04/11 00:31:26;;;;;;;1.48;1.30;;;19.70;60.90;;;;;;5328580;26;20420;-55
2024/04/11 00:33:54;;;;;;;1.00;0.90;;;19.70;60.90;;;;;;5329372;26;20015;-58
2024/04/11 00:36:24;;;;;;;1.20;1.10;;;19.70;61.00;;;;;;5343660;26;20665;-52
2024/04/11 00:38:51;;;;;;;1.30;1.20;;;19.70;60.80;;;;;;5328819;26;20000;-52
2024/04/11 00:41:17;;;;;;;2.50;1.60;;;19.70;60.90;;;;;;5336121;26;20040;-49
2024/04/11 00:43:43;;;;;;;1.73;1.13;;;19.70;60.90;;;;;;5328688;26;20001;-48
2024/04/11 00:46:10;;;;;;;1.30;1.20;;;19.70;60.90;;;;;;5332223;26;19997;-49
2024/04/11 00:48:39;;;;;;;1.77;1.30;;;19.70;60.90;;;;;;5333602;26;20697;-51
2024/04/11 00:51:08;;;;;;;1.38;1.20;;;19.70;60.80;;;;;;5330513;26;20005;-53
2024/04/11 00:53:33;;;;;;;2.38;1.80;;;19.70;60.80;;;;;;5332668;26;20023;-48
2024/04/11 00:55:59;;;;;;;1.63;1.15;;;19.70;60.80;;;;;;5342054;26;20000;-49
2024/04/11 00:58:25;;;;;;;1.52;1.20;;;19.70;60.80;;;;;;5322742;26;20005;-53
2024/04/11 01:00:52;;;;;;;1.70;1.20;;;19.70;60.80;;;;;;5320548;26;20612;-53
2024/04/11 01:03:18;;;;;;;1.75;1.27;;;19.70;60.90;;;;;;5316275;26;20067;-58
2024/04/11 01:05:44;;;;;;;1.40;1.27;;;19.70;60.80;;;;;;5335321;26;20009;-52
2024/04/11 01:08:09;;;;;;;1.70;1.30;;;19.60;60.80;;;;;;5333497;26;19997;-48
2024/04/11 01:10:37;;;;;;;2.25;1.35;;;19.60;60.80;;;;;;5330373;26;20844;-50
2024/04/11 01:13:05;;;;;;;1.38;1.05;;;19.60;60.80;;;;;;5333974;26;20642;-57
2024/04/11 01:15:37;;;;;;;1.40;1.30;;;19.60;60.70;;;;;;5323500;26;20456;-57
2024/04/11 01:18:03;;;;;;;2.45;1.35;;;19.60;60.80;;;;;;5321685;26;20008;-52
2024/04/11 01:20:28;;;;;;;1.25;1.10;;;19.60;60.70;;;;;;5325178;26;20001;-54
2024/04/11 01:22:55;;;;;;;1.10;1.00;;;19.60;60.70;;;;;;5323797;26;20001;-52
2024/04/11 01:25:21;;;;;;;1.52;1.35;;;19.60;60.80;;;;;;5330701;26;19997;-51
2024/04/11 01:27:47;;;;;;;1.10;1.00;;;19.60;60.80;;;;;;5329431;26;20019;-51
2024/04/11 01:30:12;;;;;;;1.23;0.93;;;19.60;60.70;;;;;;5325348;26;20438;-49
2024/04/11 01:32:38;;;;;;;2.05;1.50;;;19.60;60.80;;;;;;5337801;26;20000;-53
2024/04/11 01:35:08;;;;;;;1.33;1.05;;;19.60;60.80;;;;;;5332780;26;20609;-53
2024/04/11 01:37:35;;;;;;;1.27;1.17;;;19.60;60.80;;;;;;5338177;26;20013;-54
2024/04/11 01:40:01;;;;;;;2.00;1.20;;;19.60;60.70;;;;;;5338217;26;20041;-50
2024/04/11 01:42:26;;;;;;;2.22;1.00;;;19.60;60.70;;;;;;5325629;26;20004;-53
2024/04/11 01:44:52;;;;;;;1.48;1.38;;;19.60;60.80;;;;;;5331891;26;20001;-49
2024/04/11 01:47:17;;;;;;;1.45;1.35;;;19.60;60.80;;;;;;5332304;26;20016;-51
2024/04/11 01:49:43;;;;;;;1.17;1.00;;;19.60;60.80;;;;;;5323371;26;20045;-49
2024/04/11 01:52:10;;;;;;;1.15;1.05;;;19.60;60.70;;;;;;5323836;26;20001;-54
2024/04/11 01:54:41;;;;;;;2.25;1.30;;;19.60;60.80;;;;;;5323994;26;20020;-49
2024/04/11 01:57:08;;;;;;;1.38;1.15;;;19.60;60.70;;;;;;5327144;26;20020;-51
2024/04/11 01:59:34;;;;;;;1.38;0.90;;;19.50;60.70;;;;;;5327176;26;20811;-50
2024/04/11 02:02:01;;;;;;;2.55;1.25;;;19.60;60.70;;;;;;5331513;26;20017;-52
2024/04/11 02:04:30;;;;;;;1.85;0.98;;;19.50;60.60;;;;;;5332855;26;20016;-54
2024/04/11 02:06:56;;;;;;;1.48;1.13;;;19.50;60.60;;;;;;5330358;26;20371;-50
2024/04/11 02:09:23;;;;;;;1.70;1.13;;;19.50;60.60;;;;;;5324590;26;20059;-51
2024/04/11 02:11:53;;;;;;;1.52;1.00;;;19.50;60.70;;;;;;5327215;26;20078;-52
2024/04/11 02:14:21;;;;;;;1.52;1.23;;;19.50;60.50;;;;;;5333196;26;20056;-55
2024/04/11 02:16:49;;;;;;;2.80;1.40;;;19.50;60.70;;;;;;5336043;26;20013;-55
2024/04/11 02:19:14;;;;;;;1.33;1.02;;;19.50;60.70;;;;;;5335651;26;20893;-53
2024/04/11 02:21:43;;;;;;;1.02;0.93;;;19.50;60.70;;;;;;5335137;26;20001;-51
2024/04/11 02:24:11;;;;;;;1.88;1.35;;;19.50;60.70;;;;;;5332968;26;20083;-53
2024/04/11 02:26:37;;;;;;;1.50;0.98;;;19.50;60.60;;;;;;5332419;26;20005;-54
2024/04/11 02:29:04;;;;;;;1.80;1.00;;;19.50;60.70;;;;;;5330382;26;20020;-53
2024/04/11 02:31:30;;;;;;;1.63;1.13;;;19.50;60.60;;;;;;5337885;26;20000;-62
2024/04/11 02:33:57;;;;;;;1.85;1.33;;;19.40;60.60;;;;;;5330191;26;20009;-53
2024/04/11 02:36:32;;;;;;;1.10;1.00;;;19.50;60.70;;;;;;5343481;26;20001;-54
2024/04/11 02:38:59;;;;;;;1.17;1.00;;;19.40;60.60;;;;;;5329340;26;20369;-53
2024/04/11 02:41:27;;;;;;;1.25;1.00;;;19.40;60.60;;;;;;5340658;26;20016;-53
2024/04/11 02:43:53;;;;;;;2.17;1.50;;;19.40;60.70;;;;;;5341035;26;20001;-50
2024/04/11 02:46:19;;;;;;;1.65;1.05;;;19.40;60.70;;;;;;5327887;26;20024;-51
2024/04/11 02:48:46;;;;;;;1.90;1.02;;;19.40;60.60;;;;;;5328512;21;20097;-70
2024/04/11 02:51:13;;;;;;;2.58;1.20;;;19.40;60.60;;;;;;5283602;26;20005;-70
2024/04/11 02:53:39;;;;;;;1.10;0.93;;;19.40;60.60;;;;;;5284419;26;20355;-71
2024/04/11 02:56:09;;;;;;;1.40;1.10;;;19.40;60.60;;;;;;5284841;26;20675;-71
2024/04/11 02:58:38;;;;;;;1.00;0.90;;;19.40;60.60;;;;;;5286425;26;20442;-72
2024/04/11 03:01:06;;;;;;;1.10;1.00;;;19.40;60.60;;;;;;5260832;26;20414;-72
2024/04/11 03:03:32;;;;;;;1.35;1.20;;;19.40;60.60;;;;;;5273580;26;20017;-72
2024/04/11 03:06:17;;;;;;;1.40;1.30;;;19.40;60.60;;;;;;5273766;26;20023;-72
2024/04/11 03:08:42;;;;;;;1.65;1.42;;;19.40;60.60;;;;;;5255945;26;20002;-71
2024/04/11 03:11:09;;;;;;;2.22;1.00;;;19.40;60.60;;;;;;5269373;26;20002;-71
2024/04/11 03:13:35;;;;;;;1.65;1.10;;;19.40;60.60;;;;;;5274523;26;20462;-71
2024/04/11 03:16:02;;;;;;;1.52;1.42;;;19.40;60.60;;;;;;5253126;26;20013;-71
2024/04/11 03:18:28;;;;;;;1.02;0.90;;;19.40;60.40;;;;;;5276247;26;20013;-71
2024/04/11 03:20:55;;;;;;;1.52;1.40;;;19.40;60.40;;;;;;5269354;26;20018;-72
2024/04/11 03:23:22;;;;;;;2.95;0.95;;;19.50;60.30;;;;;;5271119;26;20002;-71
2024/04/11 03:25:47;;;;;;;0.85;0.85;;;19.60;60.10;;;;;;5271954;26;20028;-71
2024/04/11 03:28:14;;;;;;;1.25;1.08;;;19.80;59.50;;;;;;5267682;26;20338;-70
2024/04/11 03:30:41;;;;;;;1.23;1.13;;;20.00;59.20;;;;;;5274739;26;20511;-71
2024/04/11 03:33:06;;;;;;;2.08;1.10;;;20.20;58.70;;;;;;5268472;26;20092;-72
2024/04/11 03:35:32;;;;;;;2.85;1.17;;;20.40;58.20;;;;;;5277449;26;20053;-71
2024/04/11 03:37:58;;;;;;;1.90;0.80;;;20.60;58.00;;;;;;5286575;26;20346;-71
2024/04/11 03:40:23;;;;;;;1.45;0.80;;;20.70;57.60;;;;;;5268598;26;20442;-71
2024/04/11 03:42:49;;;;;;;0.90;0.90;;;20.90;57.40;;;;;;5267716;26;20042;-71
2024/04/11 03:45:22;;;;;;;1.23;0.98;;;21.00;57.00;;;;;;5267298;26;20094;-71
2024/04/11 03:47:51;;;;;;;2.55;1.00;;;21.10;56.60;;;;;;5265148;26;20003;-71
2024/04/11 03:50:16;;;;;;;1.90;0.95;;;21.20;56.60;;;;;;5263656;26;20007;-71
2024/04/11 03:52:42;;;;;;;1.55;0.90;;;21.30;56.60;;;;;;5265101;26;20002;-69
2024/04/11 03:55:12;;;;;;;1.58;1.00;;;21.30;56.50;;;;;;5271407;26;20308;-71
2024/04/11 03:57:38;;;;;;;1.90;1.17;;;21.40;56.50;;;;;;5268853;26;20077;-72
2024/04/11 04:00:07;;;;;;;1.35;0.90;;;21.40;56.50;;;;;;5263472;26;20038;-70
2024/04/11 04:02:33;;;;;;;1.90;1.17;;;21.40;56.40;;;;;;5275665;26;20001;-72
2024/04/11 04:04:59;;;;;;;2.35;1.15;;;21.30;56.60;;;;;;5258306;26;20002;-72
2024/04/11 04:07:28;;;;;;;1.48;1.02;;;21.30;56.70;;;;;;5270080;26;20002;-71
2024/04/11 04:10:02;;;;;;;1.45;1.27;;;21.20;56.80;;;;;;5263665;26;20026;-72
2024/04/11 04:12:29;;;;;;;1.92;1.55;;;21.20;57.50;;;;;;5255902;26;20532;-70
2024/04/11 04:14:54;;;;;;;2.03;1.45;;;21.10;57.20;;;;;;5266376;26;20347;-70
2024/04/11 04:17:23;;;;;;;2.08;1.77;;;21.10;57.30;;;;;;5266603;26;20367;-70
2024/04/11 04:19:49;;;;;;;1.98;1.52;;;21.00;57.80;;;;;;5274952;26;20002;-70
2024/04/11 04:22:16;;;;;;;1.65;1.55;;;21.00;57.60;;;;;;5256269;26;20000;-69
2024/04/11 04:24:41;;;;;;;1.52;1.33;;;20.90;57.50;;;;;;5270086;26;20009;-70
2024/04/11 04:27:07;;;;;;;2.10;1.75;;;20.80;57.80;;;;;;5262551;26;20038;-70
2024/04/11 04:29:35;;;;;;;2.55;2.00;;;20.80;58.00;;;;;;5276254;26;20441;-69
2024/04/11 04:32:01;;;;;;;1.77;1.67;;;20.70;58.10;;;;;;5269199;26;20086;-70
2024/04/11 04:34:27;;;;;;;2.10;1.77;;;20.60;58.30;;;;;;5275159;26;20013;-69
2024/04/11 04:36:53;;;;;;;2.47;1.80;;;20.60;58.50;;;;;;5271992;26;20003;-71
2024/04/11 04:39:30;;;;;;;1.75;1.65;;;20.60;58.70;;;;;;5245998;26;20341;-70
2024/04/11 04:41:56;;;;;;;3.20;2.20;;;20.50;58.80;;;;;;5274631;26;20079;-70
2024/04/11 04:44:22;;;;;;;2.83;1.75;;;20.50;59.00;;;;;;5255862;26;20092;-68
2024/04/11 04:46:48;;;;;;;2.40;2.03;;;20.40;59.10;;;;;;5278151;26;20014;-70
2024/04/11 04:49:13;;;;;;;2.22;2.03;;;20.30;59.20;;;;;;5266755;26;20089;-65
2024/04/11 04:51:40;;;;;;;3.05;2.33;;;20.40;59.20;;;;;;5272287;26;20002;-66
2024/04/11 04:54:08;;;;;;;2.20;2.00;;;20.30;58.90;;;;;;5248487;26;20034;-65
2024/04/11 04:56:34;;;;;;;2.88;2.50;;;20.30;58.70;;;;;;5274140;26;20016;-65
2024/04/11 04:58:59;;;;;;;2.60;2.15;;;20.30;58.50;;;;;;5256704;26;20002;-67
2024/04/11 05:01:26;;;;;;;2.25;1.98;;;20.30;58.40;;;;;;5259904;26;20002;-69
2024/04/11 05:03:53;;;;;;;2.97;2.30;;;20.30;58.40;;;;;;5252997;26;20018;-68
2024/04/11 05:06:18;;;;;;;3.15;1.90;;;20.30;58.30;;;;;;5252916;26;20014;-65
2024/04/11 05:08:46;;;;;;;3.00;2.35;;;20.30;58.30;;;;;;5259204;26;20002;-66
2024/04/11 05:11:12;;;;;;;3.00;2.30;;;20.30;58.20;;;;;;5252347;26;19994;-65
2024/04/11 05:13:39;;;;;;;5.75;2.80;;;20.30;58.40;;;;;;5264636;26;20008;-66
2024/04/11 05:16:08;;;;;;;2.88;2.60;;;20.30;58.70;;;;;;5271959;26;20026;-67
2024/04/11 05:18:37;;;;;;;4.05;2.70;;;20.20;58.70;;;;;;5273520;26;22291;-66
2024/04/11 05:21:07;;;;;;;3.42;3.13;;;20.20;58.80;;;;;;5254930;26;20339;-66
2024/04/11 05:23:33;;;;;;;3.70;2.60;;;20.20;58.90;;;;;;5259339;26;20476;-66
2024/04/11 05:26:07;;;;;;;5.32;2.97;;;20.10;59.00;;;;;;5273975;26;20127;-67
2024/04/11 05:28:36;;;;;;;3.03;2.67;;;20.10;59.00;;;;;;5265206;26;20006;-67
2024/04/11 05:31:09;;;;;;;4.35;2.75;;;20.10;59.30;;;;;;5224479;26;20078;-68
2024/04/11 05:33:36;;;;;;;4.22;3.85;;;20.00;59.40;;;;;;5264953;26;20017;-65
2024/04/11 05:36:02;;;;;;;3.53;2.70;;;20.00;59.40;;;;;;5266029;26;20009;-67
2024/04/11 05:38:28;;;;;;;3.60;3.30;;;20.00;59.50;;;;;;5268015;26;20065;-64
2024/04/11 05:40:53;;;;;;;5.50;3.05;;;20.00;60.20;;;;;;5261708;26;20014;-67
2024/04/11 05:43:21;;;;;;;3.42;2.92;;;20.00;59.70;;;;;;5264670;26;20049;-66
2024/04/11 05:45:47;;;;;;;5.72;3.30;;;19.90;59.60;;;;;;5268885;26;20002;-65
2024/04/11 05:48:13;;;;;;;6.00;2.88;;;20.00;59.60;;;;;;5274488;26;20006;-64
2024/04/11 05:50:38;;;;;;;3.83;3.35;;;20.00;59.40;;;;;;5273791;26;20300;-63
2024/04/11 05:53:08;;;;;;;4.63;3.25;;;20.00;59.10;;;;;;5268577;26;20060;-62
2024/04/11 05:55:33;;;;;;;3.35;3.05;;;20.00;59.20;;;;;;5274338;26;20009;-67
2024/04/11 05:57:59;;;;;;;5.05;3.45;;;20.10;59.10;;;;;;5269165;26;20108;-66
2024/04/11 06:00:29;;;;;;;3.97;3.42;;;20.10;59.10;;;;;;5275835;26;20006;-66
2024/04/11 06:03:08;;;;;;;3.95;3.55;;;20.10;59.20;;;;;;5254109;26;20021;-63
2024/04/11 06:05:34;;;;;;;21.33;12.18;;;20.10;59.20;;;;;;5255243;26;20458;-68
2024/04/11 06:07:59;;;;;;;57.30;30.70;;;20.10;59.00;;;;;;5253445;26;20006;-68
2024/04/11 06:10:25;;;;;;;79.35;42.05;;;20.00;59.70;;;;;;5262943;26;20005;-67
2024/04/11 06:12:51;;;;;;;98.47;52.38;;;20.00;59.80;;;;;;5251926;26;20006;-69
2024/04/11 06:15:19;;;;;;;96.20;52.63;;;20.00;59.60;;;;;;5264540;26;20010;-68
2024/04/11 06:17:45;;;;;;;94.18;53.20;;;19.90;59.60;;;;;;5260161;26;20351;-69
2024/04/11 06:20:15;;;;;;;99.53;55.10;;;19.90;59.80;;;;;;5270088;26;20548;-65
2024/04/11 06:22:43;;;;;;;106.35;56.03;;;19.90;60.20;;;;;;5257479;26;20002;-66
2024/04/11 06:25:09;;;;;;;104.28;54.83;;;19.90;60.00;;;;;;5261940;26;19998;-69
2024/04/11 06:27:36;;;;;;;98.43;51.58;;;19.90;60.10;;;;;;5263156;26;20347;-68
2024/04/11 06:30:02;;;;;;;98.13;50.45;;;19.80;60.10;;;;;;5259443;26;20003;-67
2024/04/11 06:32:31;;;;;;;89.75;49.05;;;19.80;60.00;;;;;;5256279;26;25501;-65
2024/04/11 06:34:56;;;;;;;81.93;46.60;;;19.80;60.00;;;;;;5251719;26;20017;-68
2024/04/11 06:37:22;;;;;;;80.40;44.97;;;19.80;60.20;;;;;;5247855;26;20007;-69
2024/04/11 06:39:49;;;;;;;79.57;45.90;;;19.80;60.00;;;;;;5243750;26;20002;-69
2024/04/11 06:42:14;;;;;;;78.32;39.25;;;19.80;59.40;;;;;;5248953;26;20053;-68
2024/04/11 06:44:48;;;;;;;65.68;38.95;;;19.80;60.10;;;;;;5251778;26;20003;-69
2024/04/11 06:47:14;;;;;;;65.45;35.58;;;19.80;60.10;;;;;;5258156;26;20002;-69
2024/04/11 06:49:41;;;;;;;60.20;33.90;;;19.80;60.00;;;;;;5253878;26;20721;-68
2024/04/11 06:52:16;;;;;;;59.53;33.40;;;19.80;60.00;;;;;;5262179;26;20083;-66
2024/04/11 06:54:43;;;;;;;56.20;31.73;;;19.80;59.90;;;;;;5257827;26;19999;-71
2024/04/11 06:57:11;;;;;;;52.17;30.52;;;19.80;60.00;;;;;;5244533;26;20093;-74
2024/04/11 06:59:36;;;;;;;56.90;30.30;;;19.80;59.50;;;;;;5256422;26;20014;-74
2024/04/11 07:02:06;;;;;;;50.40;27.70;;;19.80;60.10;;;;;;5247705;26;20062;-72
2024/04/11 07:04:32;;;;;;;45.25;25.10;;;19.70;59.80;;;;;;5250019;26;20003;-72
2024/04/11 07:07:00;;;;;;;44.88;25.58;;;19.70;60.10;;;;;;5246542;26;20725;-70
2024/04/11 07:09:37;;;;;;;45.20;24.35;;;19.70;60.00;;;;;;5230650;26;20072;-71
2024/04/11 07:12:04;;;;;;;39.72;22.67;;;19.70;60.10;;;;;;5257502;26;20454;-72
2024/04/11 07:14:31;;;;;;;38.47;21.67;;;19.70;60.50;;;;;;5258818;26;20443;-73
2024/04/11 07:16:56;;;;;;;38.17;20.90;;;19.60;60.50;;;;;;5259511;26;20017;-69
2024/04/11 07:19:23;;;;;;;32.65;18.88;;;19.70;60.40;;;;;;5251002;26;20006;-72
2024/04/11 07:21:48;;;;;;;34.47;19.15;;;19.60;60.40;;;;;;5260119;26;20073;-72
2024/04/11 07:24:13;;;;;;;37.22;18.25;;;19.60;60.30;;;;;;5258267;26;20002;-72
2024/04/11 07:26:40;;;;;;;31.70;18.48;;;19.60;60.10;;;;;;5247331;26;20441;-69
2024/04/11 07:29:06;;;;;;;31.48;17.08;;;19.60;59.90;;;;;;5270185;26;22949;-73
2024/04/11 07:31:35;;;;;;;30.40;15.13;;;19.60;59.90;;;;;;5253970;26;20367;-72
2024/04/11 07:34:02;;;;;;;25.10;15.10;;;19.60;59.90;;;;;;5260659;26;20029;-70
2024/04/11 07:36:30;;;;;;;24.23;14.45;;;19.60;60.10;;;;;;5253896;26;20051;-70
2024/04/11 07:38:57;;;;;;;25.88;14.32;;;19.60;59.70;;;;;;5247459;26;20034;-71
2024/04/11 07:41:24;;;;;;;22.88;13.40;;;19.60;59.90;;;;;;5247186;26;20474;-69
2024/04/11 07:43:56;;;;;;;21.15;12.80;;;19.60;59.80;;;;;;5258551;26;20480;-73
2024/04/11 07:46:28;;;;;;;21.67;12.02;;;19.60;59.80;;;;;;5250695;26;20006;-70
2024/04/11 07:48:55;;;;;;;20.00;11.95;;;19.60;59.70;;;;;;5257481;26;20006;-72
2024/04/11 07:51:21;;;;;;;18.33;10.88;;;19.60;59.80;;;;;;5254252;26;20328;-72
2024/04/11 07:53:48;;;;;;;20.75;10.95;;;19.60;59.50;;;;;;5258465;26;20002;-73
2024/04/11 07:56:19;;;;;;;17.70;10.48;;;19.50;59.40;;;;;;5260011;26;20002;-73
2024/04/11 07:58:58;;;;;;;16.02;10.35;;;19.60;59.50;;;;;;5260301;26;20010;-72
2024/04/11 08:01:31;;;;;;;19.42;10.50;;;19.50;59.40;;;;;;5254576;26;20009;-72
2024/04/11 08:04:01;;;;;;;14.32;9.80;;;19.60;59.20;;;;;;5250673;26;20006;-72
2024/04/11 08:06:31;;;;;;;15.65;8.57;;;19.50;59.30;;;;;;5257961;26;20017;-72
2024/04/11 08:08:57;;;;;;;14.55;9.00;;;19.50;59.30;;;;;;5258822;26;20092;-72
2024/04/11 08:11:23;;;;;;;13.25;8.13;;;19.50;59.30;;;;;;5256041;26;19999;-71
2024/04/11 08:13:49;;;;;;;13.82;8.43;;;19.50;59.40;;;;;;5256855;26;20006;-71
2024/04/11 08:16:15;;;;;;;13.00;8.13;;;19.50;59.40;;;;;;5259857;26;19998;-71
2024/04/11 08:18:40;;;;;;;15.55;8.00;;;19.50;59.30;;;;;;5256681;26;20027;-71
2024/04/11 08:21:09;;;;;;;13.93;7.65;;;19.50;59.40;;;;;;5259889;26;20005;-71
2024/04/11 08:23:36;;;;;;;13.75;7.57;;;19.50;59.60;;;;;;5250505;26;20018;-72
2024/04/11 08:26:01;;;;;;;10.88;6.43;;;19.50;59.80;;;;;;5254516;26;20014;-71
2024/04/11 08:28:27;;;;;;;11.90;6.88;;;19.50;59.80;;;;;;5253968;26;20453;-72
2024/04/11 08:30:53;;;;;;;8.82;6.47;;;19.50;59.70;;;;;;5260918;26;20420;-72
2024/04/11 08:33:22;;;;;;;10.25;6.53;;;19.50;59.60;;;;;;5252507;26;20139;-73
2024/04/11 08:35:50;;;;;;;11.55;6.45;;;19.50;59.60;;;;;;5257444;26;20335;-73
2024/04/11 08:38:18;;;;;;;9.82;5.82;;;19.50;59.60;;;;;;5245116;26;20390;-71
2024/04/11 08:40:44;;;;;;;8.65;5.72;;;19.50;59.40;;;;;;5253903;26;20505;-72
2024/04/11 08:43:10;;;;;;;10.05;6.28;;;19.60;59.20;;;;;;5256166;26;20342;-71
2024/04/11 08:45:37;;;;;;;10.23;6.03;;;19.70;58.70;;;;;;5259092;26;19998;-69
2024/04/11 08:48:03;;;;;;;8.73;5.30;;;19.90;58.10;;;;;;5276731;26;20006;-72
2024/04/11 08:50:29;;;;;;;8.77;5.30;;;20.00;57.90;;;;;;5254355;26;20009;-69
2024/04/11 08:52:56;;;;;;;8.45;4.95;;;20.10;57.70;;;;;;5260339;26;20061;-71
2024/04/11 08:55:22;;;;;;;8.65;5.50;;;20.30;57.40;;;;;;5259346;26;20002;-71
2024/04/11 08:57:50;;;;;;;7.45;4.07;;;20.40;57.30;;;;;;5257787;26;19998;-72
2024/04/11 09:00:21;;;;;;;7.97;4.38;;;20.50;57.40;;;;;;5256269;26;20429;-71
2024/04/11 09:02:52;;;;;;;6.80;4.30;;;20.60;57.80;;;;;;5222411;26;20370;-71
2024/04/11 09:05:17;;;;;;;6.13;4.45;;;20.60;56.80;;;;;;5261061;26;20501;-73
2024/04/11 09:07:46;;;;;;;7.05;4.20;;;20.70;56.60;;;;;;5262776;26;20003;-70
2024/04/11 09:10:12;;;;;;;5.60;3.88;;;20.80;56.50;;;;;;5261728;26;20373;-70
2024/04/11 09:12:48;;;;;;;7.35;4.22;;;20.90;56.50;;;;;;5259372;26;20027;-70
2024/04/11 09:15:16;;;;;;;9.02;4.43;;;20.90;56.30;;;;;;5259544;26;20080;-73
2024/04/11 09:17:43;;;;;;;6.10;3.95;;;20.90;56.90;;;;;;5261001;26;19999;-73
2024/04/11 09:20:12;;;;;;;6.35;4.03;;;20.90;56.40;;;;;;5261738;26;20058;-72
2024/04/11 09:22:50;;;;;;;6.13;3.83;;;20.90;56.20;;;;;;5257678;26;20015;-73
2024/04/11 09:25:17;;;;;;;6.60;4.22;;;20.80;56.10;;;;;;5238782;26;20015;-73
2024/04/11 09:27:50;;;;;;;8.45;4.45;;;20.80;56.10;;;;;;5260581;26;20002;-73
2024/04/11 09:30:20;;;;;;;8.30;4.05;;;20.70;56.20;;;;;;5260906;26;20041;-73
2024/04/11 09:32:48;;;;;;;5.80;4.05;;;20.70;56.10;;;;;;5265748;26;20528;-72
2024/04/11 09:35:19;;;;;;;6.07;4.00;;;20.60;56.10;;;;;;5261563;26;20002;-74
2024/04/11 09:37:44;;;;;;;8.25;4.78;;;20.60;56.10;;;;;;5259500;26;20007;-74
2024/04/11 09:40:11;;;;;;;7.05;4.28;;;20.60;56.30;;;;;;5260193;26;20023;-72
2024/04/11 09:42:40;;;;;;;6.38;3.90;;;20.60;56.30;;;;;;5264706;26;20021;-73
2024/04/11 09:45:10;;;;;;;7.22;4.30;;;20.50;56.30;;;;;;5260220;26;20006;-73
2024/04/11 09:47:38;;;;;;;6.05;3.80;;;20.50;56.40;;;;;;5258103;26;20078;-73
2024/04/11 09:50:09;;;;;;;9.18;4.45;;;20.50;56.50;;;;;;5264356;26;20014;-72
2024/04/11 09:52:37;;;;;;;6.22;4.25;;;20.40;56.50;;;;;;5262228;26;20042;-72
2024/04/11 09:55:04;;;;;;;6.22;4.35;;;20.40;56.50;;;;;;5266940;26;20002;-72
2024/04/11 09:57:33;;;;;;;7.50;4.53;;;20.40;56.60;;;;;;5261486;26;20475;-72
2024/04/11 10:00:08;;;;;;;6.25;3.92;;;20.30;56.60;;;;;;5262291;26;19998;-72
2024/04/11 10:02:35;;;;;;;7.55;4.32;;;20.30;56.70;;;;;;5255730;26;20014;-73
2024/04/11 10:05:05;;;;;;;6.75;3.97;;;20.30;56.80;;;;;;5261316;26;20081;-72
2024/04/11 10:07:41;;;;;;;7.95;5.03;;;20.30;56.80;;;;;;5260759;26;20006;-73
2024/04/11 10:10:19;;;;;;;7.93;3.97;;;20.20;56.80;;;;;;5258252;26;19998;-72
2024/04/11 10:12:48;;;;;;;10.05;4.40;;;20.20;57.00;;;;;;5264635;26;19999;-73
2024/04/11 10:15:20;;;;;;;6.90;3.45;;;20.10;57.00;;;;;;5263974;26;20002;-71
2024/04/11 10:18:08;;;;;;;5.47;3.50;;;20.10;57.10;;;;;;5247537;26;20021;-73
2024/04/11 10:21:01;;;;;;;7.85;3.70;;;20.10;57.20;;;;;;5252595;26;20474;-73
2024/04/11 10:23:29;;;;;;;7.20;3.88;;;20.10;57.30;;;;;;5255271;26;20693;-72
2024/04/11 10:25:56;;;;;;;6.50;3.53;;;20.10;57.30;;;;;;5260425;26;20006;-72
2024/04/11 10:28:46;;;;;;;10.50;3.15;;;20.10;57.40;;;;;;5255716;26;20018;-72
2024/04/11 10:31:17;;;;;;;7.70;3.60;;;20.10;57.50;;;;;;5250258;26;20084;-71
2024/04/11 10:33:58;;;;;;;7.85;4.10;;;20.10;57.60;;;;;;5255922;26;20144;-73
2024/04/11 10:36:25;;;;;;;4.50;3.40;;;20.00;57.50;;;;;;5254240;26;20043;-72
2024/04/11 10:38:52;;;;;;;5.13;3.38;;;20.00;57.60;;;;;;5242129;26;19998;-72
2024/04/11 10:41:20;;;;;;;5.75;3.35;;;20.00;57.70;;;;;;5248543;26;20020;-73
2024/04/11 10:43:49;;;;;;;7.53;3.40;;;20.00;57.80;;;;;;5255728;26;20058;-74
2024/04/11 10:46:17;;;;;;;7.88;3.42;;;20.00;57.80;;;;;;5253388;26;20026;-71
2024/04/11 10:48:44;;;;;;;6.18;3.08;;;20.00;57.90;;;;;;5251583;26;20003;-71
2024/04/11 10:51:10;;;;;;;7.35;3.13;;;19.90;57.90;;;;;;5255017;26;20039;-71
2024/04/11 10:53:36;;;;;;;5.18;3.13;;;19.90;58.00;;;;;;5253165;26;20007;-72
2024/04/11 10:56:20;;;;;;;5.95;3.85;;;19.90;58.00;;;;;;5255098;26;20013;-70
2024/04/11 10:58:47;;;;;;;5.03;3.22;;;19.90;58.10;;;;;;5247734;26;20514;-73
2024/04/11 11:01:15;;;;;;;7.13;3.33;;;19.90;58.20;;;;;;5257811;26;19998;-71
2024/04/11 11:03:47;;;;;;;8.30;3.58;;;19.90;58.40;;;;;;5255724;26;20019;-71
2024/04/11 11:06:25;;;;;;;6.35;4.15;;;19.90;58.40;;;;;;5255103;26;19998;-69
2024/04/11 11:08:55;;;;;;;4.65;3.13;;;19.90;58.40;;;;;;5255945;26;20079;-72
2024/04/11 11:11:25;;;;;;;6.28;3.50;;;19.90;58.50;;;;;;5251207;26;20022;-71
2024/04/11 11:13:54;;;;;;;5.25;3.28;;;19.90;58.50;;;;;;5257801;26;20014;-72
2024/04/11 11:16:21;;;;;;;3.97;2.90;;;19.90;58.50;;;;;;5255232;26;20547;-71
2024/04/11 11:18:47;;;;;;;5.88;3.15;;;19.90;58.50;;;;;;5257213;26;20391;-70
2024/04/11 11:21:16;;;;;;;3.80;2.60;;;19.90;58.50;;;;;;5256477;26;20007;-69
2024/04/11 11:23:45;;;;;;;5.25;2.70;;;19.90;58.60;;;;;;5282817;26;20083;-71
2024/04/11 11:26:22;;;;;;;4.15;2.70;;;19.80;58.50;;;;;;5254375;26;20073;-70
2024/04/11 11:28:51;;;;;;;4.53;2.30;;;19.90;59.20;;;;;;5252205;26;20014;-72
2024/04/11 11:31:20;;;;;;;4.93;2.88;;;19.80;58.60;;;;;;5216959;26;20346;-70
2024/04/11 11:33:49;;;;;;;5.55;3.17;;;19.80;58.60;;;;;;5255710;26;20143;-71
2024/04/11 11:36:18;;;;;;;4.03;2.63;;;19.80;58.60;;;;;;5254903;26;20025;-70
2024/04/11 11:38:48;;;;;;;3.45;2.33;;;19.80;58.50;;;;;;5252302;26;20007;-71
2024/04/11 11:41:15;;;;;;;4.22;2.83;;;19.80;58.50;;;;;;5259904;26;20357;-69
2024/04/11 11:43:46;;;;;;;5.22;2.83;;;19.80;58.50;;;;;;5255800;26;20250;-71
2024/04/11 11:46:17;;;;;;;5.03;2.55;;;19.80;58.60;;;;;;5252605;26;20028;-71
2024/04/11 11:48:46;;;;;;;2.78;2.45;;;19.80;58.60;;;;;;5251745;26;20015;-70
2024/04/11 11:51:12;;;;;;;4.68;2.30;;;19.80;58.60;;;;;;5250729;26;20014;-70
2024/04/11 11:53:45;;;;;;;3.67;2.47;;;19.80;58.70;;;;;;5252777;26;20006;-71
2024/04/11 11:56:14;;;;;;;3.10;2.08;;;19.80;58.80;;;;;;5254515;26;20043;-69
2024/04/11 11:58:43;;;;;;;3.53;2.15;;;19.80;58.80;;;;;;5257841;26;20015;-71
2024/04/11 12:01:28;;;;;;;3.97;2.50;;;19.80;58.80;;;;;;5260393;26;20002;-72
2024/04/11 12:03:55;;;;;;;3.83;2.00;;;19.80;58.80;;;;;;5257949;26;20469;-71
2024/04/11 12:06:22;;;;;;;3.47;2.72;;;19.70;58.90;;;;;;5258814;26;20018;-71
2024/04/11 12:08:47;;;;;;;3.45;2.30;;;19.70;58.80;;;;;;5249390;26;20058;-71
2024/04/11 12:11:14;;;;;;;3.42;2.45;;;19.70;58.80;;;;;;5260982;26;20006;-69
2024/04/11 12:13:44;;;;;;;3.15;2.00;;;19.70;58.70;;;;;;5257827;26;20002;-71
2024/04/11 12:16:15;;;;;;;2.75;2.05;;;19.70;58.70;;;;;;5261813;26;20017;-70
2024/04/11 12:18:41;;;;;;;2.60;1.60;;;19.80;58.60;;;;;;5259123;26;20003;-71
2024/04/11 12:21:14;;;;;;;3.40;2.20;;;19.80;58.80;;;;;;5259504;26;20096;-71
2024/04/11 12:23:42;;;;;;;3.38;2.20;;;19.70;58.60;;;;;;5252373;26;20007;-71
2024/04/11 12:26:11;;;;;;;4.38;2.20;;;19.70;58.70;;;;;;5264640;26;20010;-71
2024/04/11 12:28:37;;;;;;;4.03;2.08;;;19.70;58.70;;;;;;5257006;26;20003;-71
2024/04/11 12:31:07;;;;;;;4.63;1.90;;;19.70;58.80;;;;;;5262655;26;20021;-72
2024/04/11 12:33:34;;;;;;;3.33;2.03;;;19.70;58.70;;;;;;5261737;26;20354;-71
2024/04/11 12:36:37;;;;;;;3.88;1.80;;;19.70;58.70;;;;;;5264986;26;20010;-71
2024/04/11 12:38:48;;;;;;;3.53;2.20;;;19.70;59.00;;;;;;5263437;26;20006;-71
2024/04/11 12:41:14;;;;;;;3.40;2.00;;;19.70;58.70;;;;;;5260607;26;20005;-70
2024/04/11 12:43:41;;;;;;;2.75;2.25;;;19.70;58.70;;;;;;5260077;26;20343;-71
2024/04/11 12:46:06;;;;;;;6.38;2.40;;;19.70;58.80;;;;;;5260324;26;20013;-71
2024/04/11 12:48:34;;;;;;;4.30;2.70;;;19.70;58.70;;;;;;5260570;26;20010;-71